createdAt,value
2018-08-31T00:02:18.699Z,21.90
2018-08-31T00:04:59.002Z,21.80
2018-08-31T00:07:55.691Z,21.80
2018-08-31T00:12:37.631Z,21.70
2018-08-31T00:15:06.728Z,21.70
2018-08-31T00:17:36.280Z,21.70
2018-08-31T00:20:05.541Z,21.60
2018-08-31T00:22:34.333Z,21.50
2018-08-31T00:25:14.251Z,21.50
2018-08-31T00:30:28.091Z,21.50
2018-08-31T00:34:10.518Z,21.50
2018-08-31T00:36:54.746Z,21.40
2018-08-31T00:39:53.686Z,21.40
2018-08-31T00:42:47.840Z,21.40
2018-08-31T00:45:29.253Z,21.40
2018-08-31T00:48:00.578Z,21.40
2018-08-31T00:50:29.942Z,21.40
2018-08-31T00:52:59.109Z,21.40
2018-08-31T00:55:29.784Z,21.40
2018-08-31T00:57:58.620Z,21.40
2018-08-31T01:00:27.454Z,21.40
2018-08-31T01:02:56.301Z,21.40
2018-08-31T01:05:25.189Z,21.40
2018-08-31T01:07:57.381Z,21.40
2018-08-31T01:10:26.282Z,21.40
2018-08-31T01:12:57.048Z,21.40
2018-08-31T01:15:25.863Z,21.40
2018-08-31T01:17:54.684Z,21.30
2018-08-31T01:20:27.479Z,21.30
2018-08-31T01:22:56.285Z,21.30
2018-08-31T01:25:25.261Z,21.20
2018-08-31T01:27:54.368Z,21.20
2018-08-31T01:30:23.214Z,21.20
2018-08-31T01:32:52.034Z,21.20
2018-08-31T01:35:20.861Z,21.20
2018-08-31T01:37:49.666Z,21.20
2018-08-31T01:40:18.462Z,21.10
2018-08-31T01:42:48.287Z,21.20
2018-08-31T01:45:17.095Z,21.20
2018-08-31T01:47:45.943Z,21.20
2018-08-31T01:50:15.580Z,21.10
2018-08-31T01:52:44.472Z,21.10
2018-08-31T01:55:13.227Z,21.10
2018-08-31T01:57:43.766Z,21.10
2018-08-31T02:00:12.611Z,21.20
2018-08-31T02:02:41.426Z,21.20
2018-08-31T02:05:11.470Z,21.10
2018-08-31T02:07:40.291Z,21.10
2018-08-31T02:10:09.091Z,21.10
2018-08-31T02:12:38.009Z,21.00
2018-08-31T02:15:06.868Z,21.00
2018-08-31T02:17:35.679Z,21.00
2018-08-31T02:20:04.821Z,21.00
2018-08-31T02:22:33.631Z,21.00
2018-08-31T02:25:02.410Z,20.90
2018-08-31T02:27:31.876Z,20.90
2018-08-31T02:30:00.687Z,21.00
2018-08-31T02:32:29.558Z,20.90
2018-08-31T02:34:59.997Z,20.90
2018-08-31T02:37:28.869Z,21.00
2018-08-31T02:39:57.701Z,20.90
2018-08-31T02:42:26.782Z,21.00
2018-08-31T02:44:55.610Z,21.00
2018-08-31T02:47:24.447Z,21.00
2018-08-31T02:49:54.078Z,21.00
2018-08-31T02:52:22.947Z,20.90
2018-08-31T02:54:51.785Z,20.90
2018-08-31T02:57:23.863Z,20.90
2018-08-31T02:59:52.661Z,20.90
2018-08-31T03:02:21.533Z,20.90
2018-08-31T03:04:50.362Z,20.90
2018-08-31T03:07:19.138Z,20.90
2018-08-31T03:09:48.001Z,20.90
2018-08-31T03:12:18.556Z,20.90
2018-08-31T03:14:47.380Z,20.80
2018-08-31T03:19:46.312Z,20.70
2018-08-31T03:22:15.130Z,20.70
2018-08-31T03:24:43.940Z,20.60
2018-08-31T03:27:12.852Z,20.50
2018-08-31T03:29:41.704Z,20.50
2018-08-31T03:32:10.513Z,20.30
2018-08-31T03:34:39.692Z,20.30
2018-08-31T03:37:08.501Z,20.20
2018-08-31T03:39:37.303Z,20.10
2018-08-31T03:42:06.686Z,20.00
2018-08-31T03:44:35.481Z,20.00
2018-08-31T03:47:04.365Z,20.00
2018-08-31T03:49:33.333Z,19.90
2018-08-31T03:54:30.573Z,19.90
2018-08-31T03:57:00.526Z,19.90
2018-08-31T03:59:29.463Z,19.90
2018-08-31T04:01:58.277Z,20.00
2018-08-31T04:04:27.353Z,19.90
2018-08-31T04:06:56.189Z,20.00
2018-08-31T04:09:25.076Z,20.00
2018-08-31T04:11:53.917Z,20.00
2018-08-31T04:14:22.733Z,20.10
2018-08-31T04:19:20.154Z,20.10
2018-08-31T04:21:48.968Z,20.20
2018-08-31T04:26:47.542Z,20.20
2018-08-31T04:29:16.367Z,20.30
2018-08-31T04:31:45.194Z,20.40
2018-08-31T04:36:43.194Z,20.50
2018-08-31T04:39:13.251Z,20.50
2018-08-31T04:41:43.820Z,20.60
2018-08-31T04:44:12.737Z,20.70
2018-08-31T04:46:41.787Z,20.80
2018-08-31T04:49:10.817Z,20.80
2018-08-31T04:51:39.637Z,20.80
2018-08-31T04:54:08.445Z,21.00
2018-08-31T04:56:37.500Z,21.10
2018-08-31T04:59:06.361Z,21.20
2018-08-31T05:01:35.155Z,21.30
2018-08-31T05:04:04.334Z,21.50
2018-08-31T05:06:33.186Z,21.60
2018-08-31T05:11:31.142Z,21.80
2018-08-31T05:13:59.994Z,21.90
2018-08-31T05:16:29.689Z,22.00
2018-08-31T05:18:58.485Z,22.10
2018-08-31T05:21:27.360Z,22.10
2018-08-31T05:23:56.261Z,22.20
2018-08-31T05:26:25.667Z,22.20
2018-08-31T05:28:55.059Z,22.20
2018-08-31T05:31:24.886Z,22.20
2018-08-31T05:33:53.805Z,22.30
2018-08-31T05:36:22.632Z,22.30
2018-08-31T05:38:54.669Z,22.40
2018-08-31T05:41:23.470Z,22.50
2018-08-31T05:43:52.295Z,22.60
2018-08-31T05:46:21.299Z,22.70
2018-08-31T05:48:50.137Z,22.70
2018-08-31T05:51:18.927Z,22.90
2018-08-31T05:53:48.527Z,23.10
2018-08-31T05:56:17.876Z,23.40
2018-08-31T05:58:46.692Z,23.70
2018-08-31T06:01:16.835Z,23.90
2018-08-31T06:03:45.641Z,24.00
2018-08-31T06:06:14.475Z,24.30
2018-08-31T06:08:44.155Z,24.50
2018-08-31T06:11:12.955Z,24.80
2018-08-31T06:16:10.886Z,25.20
2018-08-31T06:18:39.705Z,25.80
2018-08-31T06:21:08.537Z,26.10
2018-08-31T06:23:38.399Z,26.30
2018-08-31T06:26:08.108Z,26.60
2018-08-31T06:28:36.925Z,26.60
2018-08-31T06:31:05.911Z,27.30
2018-08-31T06:33:34.697Z,27.30
2018-08-31T06:38:31.973Z,28.70
2018-08-31T06:41:00.781Z,28.80
2018-08-31T06:43:29.594Z,29.50
2018-08-31T06:45:59.159Z,30.50
2018-08-31T06:48:28.019Z,32.20
2018-08-31T06:50:56.820Z,33.20
2018-08-31T06:53:25.910Z,33.20
2018-08-31T06:55:54.729Z,34.30
2018-08-31T06:58:23.567Z,35.20
2018-08-31T07:00:52.635Z,36.10
2018-08-31T07:03:21.456Z,37.50
2018-08-31T07:05:50.281Z,37.50
2018-08-31T07:08:19.257Z,38.10
2018-08-31T07:10:48.030Z,39.10
2018-08-31T07:13:16.848Z,39.40
2018-08-31T07:15:45.911Z,39.40
2018-08-31T07:18:14.750Z,40.20
2018-08-31T07:20:45.085Z,40.20
2018-08-31T07:23:14.857Z,41.00
2018-08-31T07:25:43.654Z,41.60
2018-08-31T07:28:12.488Z,42.20
2018-08-31T07:30:41.315Z,42.70
2018-08-31T07:33:10.133Z,43.90
2018-08-31T07:35:39.009Z,44.30
2018-08-31T07:38:09.742Z,44.30
2018-08-31T07:40:38.555Z,44.80
2018-08-31T07:43:07.499Z,45.80
2018-08-31T07:45:37.388Z,45.80
2018-08-31T07:48:06.215Z,46.30
2018-08-31T07:50:35.018Z,46.70
2018-08-31T07:53:04.803Z,46.90
2018-08-31T07:55:33.618Z,46.80
2018-08-31T07:58:03.186Z,47.10
2018-08-31T08:00:35.022Z,47.30
2018-08-31T08:03:03.875Z,47.40
2018-08-31T08:05:32.812Z,47.00
2018-08-31T08:08:01.981Z,46.60
2018-08-31T08:10:30.774Z,46.70
2018-08-31T08:12:59.562Z,46.70
2018-08-31T08:15:28.368Z,46.60
2018-08-31T08:17:57.158Z,46.10
2018-08-31T08:20:26.248Z,46.10
2018-08-31T08:22:55.405Z,45.30
2018-08-31T08:25:24.261Z,45.30
2018-08-31T08:27:53.074Z,45.70
2018-08-31T08:30:22.135Z,45.80
2018-08-31T08:32:50.937Z,45.90
2018-08-31T08:35:19.743Z,45.50
2018-08-31T08:37:50.439Z,45.70
2018-08-31T08:40:19.219Z,45.70
2018-08-31T08:42:48.021Z,46.40
2018-08-31T08:45:17.634Z,45.70
2018-08-31T08:47:46.453Z,45.70
2018-08-31T08:50:15.305Z,46.00
2018-08-31T08:52:44.357Z,46.40
2018-08-31T08:55:13.145Z,46.40
2018-08-31T08:57:41.965Z,46.70
2018-08-31T09:00:11.386Z,47.50
2018-08-31T09:02:40.241Z,48.10
2018-08-31T09:05:09.077Z,48.80
2018-08-31T09:07:37.924Z,48.80
2018-08-31T09:10:06.800Z,49.00
2018-08-31T09:12:35.581Z,49.10
2018-08-31T09:15:05.214Z,49.60
2018-08-31T09:17:34.070Z,50.10
2018-08-31T09:20:02.939Z,49.90
2018-08-31T09:22:31.695Z,49.70
2018-08-31T09:25:00.588Z,49.80
2018-08-31T09:27:35.984Z,50.00
2018-08-31T09:30:05.041Z,50.00
2018-08-31T09:32:34.114Z,50.50
2018-08-31T09:35:02.899Z,51.60
2018-08-31T09:37:31.812Z,51.60
2018-08-31T09:40:00.875Z,51.30
2018-08-31T09:42:29.748Z,51.20
2018-08-31T09:44:58.555Z,50.30
2018-08-31T09:47:27.685Z,50.00
2018-08-31T09:49:56.486Z,50.00
2018-08-31T09:52:25.274Z,49.20
2018-08-31T09:54:54.430Z,49.40
2018-08-31T09:57:23.281Z,49.70
2018-08-31T09:59:52.055Z,49.80
2018-08-31T10:02:26.703Z,50.10
2018-08-31T10:04:55.502Z,51.00
2018-08-31T10:07:24.284Z,50.90
2018-08-31T10:09:53.303Z,50.20
2018-08-31T10:12:22.155Z,50.10
2018-08-31T10:14:50.961Z,50.30
2018-08-31T10:17:23.075Z,50.10
2018-08-31T10:19:51.880Z,49.90
2018-08-31T10:22:20.675Z,49.70
2018-08-31T10:24:50.537Z,49.60
2018-08-31T10:27:19.359Z,49.90
2018-08-31T10:29:48.143Z,50.00
2018-08-31T10:32:17.026Z,50.10
2018-08-31T10:34:45.825Z,49.20
2018-08-31T10:37:14.662Z,48.50
2018-08-31T10:39:43.507Z,48.60
2018-08-31T10:42:12.282Z,48.00
2018-08-31T10:44:41.140Z,47.70
2018-08-31T10:47:10.957Z,47.70
2018-08-31T10:49:39.871Z,48.20
2018-08-31T10:52:08.773Z,48.50
2018-08-31T10:54:37.891Z,49.00
2018-08-31T10:57:06.718Z,49.40
2018-08-31T10:59:35.587Z,49.40
2018-08-31T11:02:04.427Z,49.40
2018-08-31T11:04:33.218Z,48.10
2018-08-31T11:07:02.034Z,47.10
2018-08-31T11:09:32.420Z,45.40
2018-08-31T11:12:01.227Z,43.80
2018-08-31T11:14:30.006Z,43.00
2018-08-31T11:17:00.678Z,43.00
2018-08-31T11:19:29.500Z,42.10
2018-08-31T11:21:58.301Z,41.20
2018-08-31T11:24:28.934Z,41.10
2018-08-31T11:26:57.750Z,39.50
2018-08-31T11:29:26.547Z,39.10
2018-08-31T11:31:56.382Z,39.00
2018-08-31T11:34:25.174Z,38.70
2018-08-31T11:36:53.937Z,37.30
2018-08-31T11:39:23.414Z,36.90
2018-08-31T11:41:52.275Z,36.80
2018-08-31T11:44:21.129Z,35.70
2018-08-31T11:46:50.750Z,35.60
2018-08-31T11:49:19.533Z,35.20
2018-08-31T11:51:48.351Z,34.60
2018-08-31T11:54:18.186Z,34.30
2018-08-31T11:56:46.975Z,34.40
2018-08-31T11:59:15.753Z,33.90
2018-08-31T12:01:44.587Z,33.90
2018-08-31T12:04:13.350Z,33.80
2018-08-31T12:06:42.151Z,33.70
2018-08-31T12:09:11.883Z,33.60
2018-08-31T12:11:40.713Z,33.30
2018-08-31T12:14:09.608Z,33.20
2018-08-31T12:16:38.475Z,33.20
2018-08-31T12:19:07.409Z,33.20
2018-08-31T12:21:36.193Z,33.10
2018-08-31T12:24:05.323Z,33.10
2018-08-31T12:26:34.140Z,33.00
2018-08-31T12:29:03.011Z,33.00
2018-08-31T12:31:32.932Z,33.00
2018-08-31T12:34:02.033Z,32.90
2018-08-31T12:36:30.867Z,32.70
2018-08-31T12:39:00.422Z,32.70
2018-08-31T12:41:29.201Z,32.60
2018-08-31T12:43:58.139Z,32.70
2018-08-31T12:46:28.240Z,32.50
2018-08-31T12:48:57.039Z,32.40
2018-08-31T12:51:25.871Z,32.20
2018-08-31T12:53:56.542Z,32.20
2018-08-31T12:56:25.401Z,32.20
2018-08-31T12:58:54.169Z,32.10
2018-08-31T13:01:23.035Z,32.10
2018-08-31T13:03:51.865Z,32.10
2018-08-31T13:06:20.639Z,32.20
2018-08-31T13:08:49.985Z,32.00
2018-08-31T13:11:18.776Z,32.00
2018-08-31T13:13:47.810Z,31.90
2018-08-31T13:16:17.012Z,31.90
2018-08-31T13:18:45.829Z,31.90
2018-08-31T13:21:14.619Z,31.80
2018-08-31T13:23:44.925Z,31.90
2018-08-31T13:26:13.753Z,32.00
2018-08-31T13:28:42.559Z,32.00
2018-08-31T13:31:12.886Z,32.00
2018-08-31T13:33:42.680Z,32.00
2018-08-31T13:36:11.444Z,32.00
2018-08-31T13:38:41.424Z,32.00
2018-08-31T13:41:10.217Z,31.90
2018-08-31T13:43:39.066Z,31.90
2018-08-31T13:46:08.585Z,31.90
2018-08-31T13:51:07.537Z,31.60
2018-08-31T13:53:36.926Z,31.60
2018-08-31T13:56:07.253Z,31.60
2018-08-31T13:58:36.930Z,31.60
2018-08-31T14:01:08.343Z,31.60
2018-08-31T14:03:37.624Z,31.50
2018-08-31T14:06:06.870Z,31.60
2018-08-31T14:11:06.351Z,31.50
2018-08-31T14:13:35.630Z,31.50
2018-08-31T14:16:05.413Z,31.40
2018-08-31T14:18:35.390Z,31.40
2018-08-31T14:21:05.612Z,31.40
2018-08-31T14:23:34.878Z,31.40
2018-08-31T14:26:04.706Z,31.30
2018-08-31T14:28:34.678Z,31.30
2018-08-31T14:31:04.609Z,31.40
2018-08-31T14:33:34.255Z,31.30
2018-08-31T14:36:03.800Z,31.20
2018-08-31T14:38:33.680Z,31.20
2018-08-31T14:41:02.776Z,31.00
2018-08-31T14:43:32.912Z,31.00
2018-08-31T14:46:04.916Z,30.90
2018-08-31T14:48:35.015Z,30.90
2018-08-31T14:51:03.976Z,30.90
2018-08-31T14:58:31.864Z,31.00
2018-08-31T15:01:03.080Z,31.00
2018-08-31T15:03:33.554Z,30.90
2018-08-31T15:06:03.756Z,30.90
2018-08-31T15:08:34.111Z,30.80
2018-08-31T15:11:03.496Z,30.70
2018-08-31T15:13:33.489Z,30.60
2018-08-31T15:16:03.177Z,30.60
2018-08-31T15:21:02.962Z,30.50
2018-08-31T15:23:32.450Z,30.50
2018-08-31T15:26:02.091Z,30.50
2018-08-31T15:28:31.752Z,30.50
2018-08-31T15:31:00.948Z,30.50
2018-08-31T15:36:05.190Z,30.50
2018-08-31T15:38:35.059Z,30.50
2018-08-31T15:41:05.108Z,30.40
2018-08-31T15:43:34.743Z,30.40
2018-08-31T15:46:04.274Z,30.30
2018-08-31T15:51:04.335Z,30.30
2018-08-31T15:53:34.675Z,30.20
2018-08-31T15:56:04.712Z,30.10
2018-08-31T15:58:35.069Z,30.00
2018-08-31T16:01:04.882Z,30.00
2018-08-31T16:03:36.185Z,29.90
2018-08-31T16:06:05.211Z,29.90
2018-08-31T16:08:35.984Z,29.80
2018-08-31T16:11:06.482Z,29.80
2018-08-31T16:13:35.565Z,29.80
2018-08-31T16:16:05.883Z,29.60
2018-08-31T16:18:36.184Z,29.60
2018-08-31T16:21:06.102Z,29.40
2018-08-31T16:23:36.473Z,29.40
2018-08-31T16:26:07.795Z,29.30
2018-08-31T16:31:07.175Z,29.20
2018-08-31T16:33:37.575Z,29.10
2018-08-31T16:36:07.004Z,29.20
2018-08-31T16:38:38.883Z,29.20
2018-08-31T16:41:09.309Z,29.80
2018-08-31T16:43:38.582Z,29.00
2018-08-31T16:46:08.528Z,29.00
2018-08-31T16:48:38.822Z,29.00
2018-08-31T16:51:08.967Z,29.00
2018-08-31T16:53:39.937Z,28.90
2018-08-31T16:56:10.232Z,28.80
2018-08-31T16:58:40.702Z,28.70
2018-08-31T17:01:10.191Z,28.60
2018-08-31T17:03:39.247Z,28.50
2018-08-31T17:06:08.890Z,28.30
2018-08-31T17:08:38.648Z,28.30
2018-08-31T17:11:09.753Z,28.30
2018-08-31T17:13:40.977Z,28.20
2018-08-31T17:16:10.029Z,28.10
2018-08-31T17:18:41.950Z,28.10
2018-08-31T17:21:12.245Z,28.00
2018-08-31T17:23:46.077Z,27.90
2018-08-31T17:26:21.343Z,27.90
2018-08-31T17:28:57.546Z,27.80
2018-08-31T17:34:08.856Z,27.80
2018-08-31T17:36:43.692Z,27.70
2018-08-31T17:39:15.829Z,27.70
2018-08-31T17:41:46.906Z,27.70
2018-08-31T17:44:16.610Z,27.60
2018-08-31T17:46:46.538Z,27.50
2018-08-31T17:49:16.647Z,27.50
2018-08-31T17:51:47.256Z,27.50
2018-08-31T17:54:17.019Z,27.30
2018-08-31T17:56:47.133Z,27.20
2018-08-31T18:01:40.607Z,27.10
2018-08-31T18:04:09.832Z,27.00
2018-08-31T18:06:38.645Z,26.90
2018-08-31T18:09:08.011Z,26.80
2018-08-31T18:11:37.059Z,26.80
2018-08-31T18:14:05.964Z,26.80
2018-08-31T18:16:34.913Z,26.70
2018-08-31T18:19:03.691Z,26.70
2018-08-31T18:21:32.538Z,26.50
2018-08-31T18:24:01.330Z,26.50
2018-08-31T18:26:31.149Z,26.40
2018-08-31T18:29:00.211Z,26.30
2018-08-31T18:31:28.998Z,26.20
2018-08-31T18:33:57.822Z,26.20
2018-08-31T18:36:26.696Z,26.00
2018-08-31T18:38:55.479Z,26.00
2018-08-31T18:41:24.535Z,25.90
2018-08-31T18:43:53.357Z,25.80
2018-08-31T18:46:22.288Z,25.60
2018-08-31T18:48:51.325Z,25.50
2018-08-31T18:51:20.182Z,25.50
2018-08-31T18:53:49.041Z,25.50
2018-08-31T18:56:18.117Z,25.50
2018-08-31T18:58:46.912Z,25.40
2018-08-31T19:01:15.700Z,25.40
2018-08-31T19:03:45.965Z,25.30
2018-08-31T19:06:14.809Z,25.30
2018-08-31T19:08:43.611Z,25.20
2018-08-31T19:11:14.738Z,25.20
2018-08-31T19:13:43.513Z,25.20
2018-08-31T19:16:12.358Z,25.10
2018-08-31T19:18:42.068Z,25.10
2018-08-31T19:21:10.881Z,25.00
2018-08-31T19:23:39.664Z,25.00
2018-08-31T19:26:08.532Z,24.90
2018-08-31T19:28:37.340Z,25.00
2018-08-31T19:31:06.221Z,24.90
2018-08-31T19:33:35.082Z,24.90
2018-08-31T19:36:03.883Z,24.80
2018-08-31T19:38:32.774Z,24.80
2018-08-31T19:41:02.894Z,24.80
2018-08-31T19:43:31.707Z,24.80
2018-08-31T19:46:00.594Z,24.70
2018-08-31T19:48:30.416Z,24.80
2018-08-31T19:50:59.222Z,24.80
2018-08-31T19:53:28.140Z,24.80
2018-08-31T19:55:57.012Z,24.70
2018-08-31T19:58:25.825Z,24.70
2018-08-31T20:00:54.660Z,24.60
2018-08-31T20:03:24.520Z,24.70
2018-08-31T20:05:53.335Z,24.60
2018-08-31T20:08:22.177Z,24.60
2018-08-31T20:10:51.820Z,24.70
2018-08-31T20:13:20.684Z,24.60
2018-08-31T20:15:49.566Z,24.60
2018-08-31T20:18:18.757Z,24.60
2018-08-31T20:20:47.540Z,24.60
2018-08-31T20:23:16.336Z,24.50
2018-08-31T20:25:45.484Z,24.50
2018-08-31T20:30:42.697Z,24.30
2018-08-31T20:33:11.736Z,24.30
2018-08-31T20:35:40.662Z,24.30
2018-08-31T20:38:10.337Z,24.20
2018-08-31T20:40:39.892Z,24.20
2018-08-31T20:43:09.022Z,24.20
2018-08-31T20:45:38.017Z,24.20
2018-08-31T20:48:08.297Z,24.20
2018-08-31T20:50:39.078Z,24.20
2018-08-31T20:55:37.746Z,24.20
2018-08-31T20:58:07.926Z,24.20
2018-08-31T21:00:46.544Z,24.20
2018-08-31T21:03:16.840Z,24.20
2018-08-31T21:05:51.572Z,24.20
2018-08-31T21:08:23.038Z,24.20
2018-08-31T21:10:52.189Z,24.10
2018-08-31T21:13:21.098Z,24.20
2018-08-31T21:15:51.494Z,24.10
2018-08-31T21:18:21.583Z,24.10
2018-08-31T21:20:51.852Z,24.10
2018-08-31T21:23:22.654Z,24.00
2018-08-31T21:25:52.891Z,27.40
2018-08-31T21:28:24.065Z,24.00
2018-08-31T21:30:54.083Z,24.00
2018-08-31T21:33:23.544Z,24.00
2018-08-31T21:36:09.249Z,23.90
2018-08-31T21:38:38.489Z,23.90
2018-08-31T21:41:07.693Z,23.80
2018-08-31T21:43:37.418Z,23.80
2018-08-31T21:46:07.412Z,23.80
2018-08-31T21:48:36.870Z,23.80
2018-08-31T21:51:07.141Z,23.80
2018-08-31T21:53:36.525Z,23.80
2018-08-31T21:56:06.001Z,23.70
2018-08-31T21:58:35.317Z,23.70
2018-08-31T22:01:10.190Z,23.70
2018-08-31T22:03:43.398Z,23.60
2018-08-31T22:06:12.993Z,23.60
2018-08-31T22:08:42.879Z,23.60
2018-08-31T22:11:14.431Z,23.60
2018-08-31T22:13:44.628Z,23.60
2018-08-31T22:16:17.200Z,23.50
2018-08-31T22:18:46.665Z,23.50
2018-08-31T22:21:17.142Z,23.50
2018-08-31T22:23:47.408Z,23.50
2018-08-31T22:26:17.013Z,23.50
2018-08-31T22:28:47.687Z,23.40
2018-08-31T22:31:18.511Z,23.40
2018-08-31T22:33:50.925Z,23.30
2018-08-31T22:36:20.691Z,23.30
2018-08-31T22:38:50.681Z,23.20
2018-08-31T22:41:21.407Z,23.20
2018-08-31T22:43:52.448Z,23.10
2018-08-31T22:46:28.735Z,23.10
2018-08-31T22:48:57.980Z,22.90
2018-08-31T22:51:28.097Z,22.90
2018-08-31T22:53:58.886Z,22.90
2018-08-31T22:56:28.900Z,22.70
2018-08-31T22:58:58.877Z,22.60
2018-08-31T23:01:27.681Z,22.60
2018-08-31T23:03:56.624Z,22.60
2018-08-31T23:06:25.683Z,22.60
2018-08-31T23:08:54.490Z,22.40
2018-08-31T23:11:23.297Z,22.40
2018-08-31T23:13:52.745Z,22.30
2018-08-31T23:16:21.578Z,22.30
2018-08-31T23:18:50.405Z,22.20
2018-08-31T23:26:18.362Z,22.10
2018-08-31T23:28:47.170Z,22.10
2018-08-31T23:31:16.000Z,22.00
2018-08-31T23:33:44.774Z,22.00
2018-08-31T23:36:14.552Z,22.00
2018-08-31T23:38:43.343Z,22.00
2018-08-31T23:41:12.112Z,21.90
2018-08-31T23:43:41.285Z,21.90
2018-08-31T23:46:10.111Z,21.90
2018-08-31T23:48:38.983Z,21.90
2018-08-31T23:51:08.687Z,21.80
2018-08-31T23:53:37.537Z,21.80
2018-08-31T23:56:06.422Z,21.80
2018-08-31T23:58:37.197Z,21.80
